createdAt,value
2023-04-02T00:01:25.126Z,54.90
2023-04-02T00:04:23.949Z,55.20
2023-04-02T00:07:37.130Z,55.20
2023-04-02T00:10:44.186Z,55.00
2023-04-02T00:13:29.146Z,55.00
2023-04-02T00:16:20.226Z,55.00
2023-04-02T00:19:04.130Z,55.10
2023-04-02T00:21:46.571Z,54.80
2023-04-02T00:24:35.129Z,54.70
2023-04-02T00:27:16.244Z,54.80
2023-04-02T00:30:11.145Z,54.60
2023-04-02T00:32:59.223Z,54.50
2023-04-02T00:35:52.145Z,54.50
2023-04-02T00:38:35.220Z,54.70
2023-04-02T00:41:22.119Z,54.40
2023-04-02T00:44:10.894Z,54.50
2023-04-02T00:46:56.134Z,54.60
2023-04-02T00:49:46.173Z,54.50
2023-04-02T00:52:31.158Z,54.50
2023-04-02T00:55:46.132Z,54.50
2023-04-02T00:58:40.162Z,54.60
2023-04-02T01:01:31.169Z,54.60
2023-04-02T01:04:12.206Z,54.50
2023-04-02T01:07:07.143Z,54.40
2023-04-02T01:10:27.106Z,54.30
2023-04-02T01:13:15.645Z,54.20
2023-04-02T01:16:28.144Z,54.20
2023-04-02T01:19:45.202Z,54.30
2023-04-02T01:22:44.120Z,54.20
2023-04-02T01:25:44.126Z,54.20
2023-04-02T01:28:35.359Z,54.10
2023-04-02T01:31:23.203Z,54.10
2023-04-02T01:34:10.164Z,54.00
2023-04-02T01:37:16.839Z,54.00
2023-04-02T01:40:22.135Z,53.80
2023-04-02T01:43:36.004Z,53.90
2023-04-02T01:46:47.176Z,53.90
2023-04-02T01:49:34.182Z,53.80
2023-04-02T01:52:15.110Z,53.80
2023-04-02T01:54:56.981Z,53.80
2023-04-02T01:57:45.131Z,53.90
2023-04-02T02:00:28.288Z,53.80
2023-04-02T02:03:16.222Z,53.90
2023-04-02T02:06:04.107Z,53.90
2023-04-02T02:08:54.139Z,53.90
2023-04-02T02:11:41.187Z,53.80
2023-04-02T02:14:33.140Z,53.70
2023-04-02T02:17:19.774Z,53.20
2023-04-02T02:20:17.135Z,53.30
2023-04-02T02:23:05.146Z,53.50
2023-04-02T02:25:46.184Z,53.40
2023-04-02T02:28:40.139Z,53.30
2023-04-02T02:31:29.211Z,53.20
2023-04-02T02:34:25.129Z,53.00
2023-04-02T02:37:27.405Z,53.20
2023-04-02T02:40:41.121Z,53.20
2023-04-02T02:43:24.190Z,53.00
2023-04-02T02:46:12.210Z,54.00
2023-04-02T02:48:53.260Z,53.10
2023-04-02T02:51:53.135Z,53.00
2023-04-02T02:54:42.232Z,52.80
2023-04-02T02:57:34.224Z,52.70
2023-04-02T03:00:16.134Z,52.50
2023-04-02T03:03:04.299Z,52.50
2023-04-02T03:05:46.731Z,52.60
2023-04-02T03:08:47.158Z,52.50
2023-04-02T03:11:53.568Z,52.30
2023-04-02T03:14:51.130Z,52.50
2023-04-02T03:18:00.487Z,52.50
2023-04-02T03:21:04.126Z,52.30
2023-04-02T03:23:54.723Z,52.50
2023-04-02T03:26:56.131Z,52.60
2023-04-02T03:29:49.965Z,51.70
2023-04-02T03:32:36.137Z,52.20
2023-04-02T03:35:34.343Z,52.40
2023-04-02T03:38:31.125Z,52.10
2023-04-02T03:41:50.948Z,52.10
2023-04-02T03:44:47.136Z,52.00
2023-04-02T03:47:42.869Z,52.40
2023-04-02T03:50:34.147Z,52.10
2023-04-02T03:53:21.141Z,52.10
2023-04-02T03:56:03.890Z,52.10
2023-04-02T03:58:56.119Z,51.90
2023-04-02T04:01:49.311Z,51.90
2023-04-02T04:04:38.137Z,52.00
2023-04-02T04:07:39.190Z,52.00
2023-04-02T04:10:32.149Z,51.80
2023-04-02T04:13:19.243Z,51.60
2023-04-02T04:16:18.237Z,51.60
2023-04-02T04:19:29.126Z,51.40
2023-04-02T04:22:40.126Z,51.40
2023-04-02T04:25:42.127Z,51.40
2023-04-02T04:28:58.453Z,51.40
2023-04-02T04:32:02.133Z,51.20
2023-04-02T04:34:58.153Z,52.00
2023-04-02T04:37:43.465Z,50.80
2023-04-02T04:40:35.130Z,50.60
2023-04-02T04:43:31.130Z,50.70
2023-04-02T04:46:48.156Z,50.90
2023-04-02T04:49:41.218Z,50.70
2023-04-02T04:52:34.137Z,50.70
2023-04-02T04:55:36.358Z,50.60
2023-04-02T04:58:34.118Z,50.50
2023-04-02T05:01:30.172Z,50.20
2023-04-02T05:04:29.157Z,50.20
2023-04-02T05:07:21.154Z,50.10
2023-04-02T05:10:33.122Z,49.90
2023-04-02T05:13:46.140Z,49.80
2023-04-02T05:17:04.187Z,49.60
2023-04-02T05:20:09.148Z,49.50
2023-04-02T05:23:09.112Z,49.20
2023-04-02T05:26:07.880Z,49.00
2023-04-02T05:29:06.117Z,49.00
2023-04-02T05:31:56.136Z,49.00
2023-04-02T05:34:46.138Z,48.60
2023-04-02T05:37:29.175Z,48.70
2023-04-02T05:40:34.136Z,48.50
2023-04-02T05:43:24.119Z,48.80
2023-04-02T05:46:22.256Z,47.80
2023-04-02T05:49:06.153Z,47.80
2023-04-02T05:51:51.086Z,47.50
2023-04-02T05:54:57.122Z,48.60
2023-04-02T05:58:17.563Z,47.20
2023-04-02T06:01:30.125Z,47.40
2023-04-02T06:04:32.184Z,47.50
2023-04-02T06:07:30.143Z,47.60
2023-04-02T06:10:36.147Z,47.20
2023-04-02T06:13:18.987Z,47.30
2023-04-02T06:16:05.134Z,47.20
2023-04-02T06:18:53.144Z,47.20
2023-04-02T06:21:33.190Z,46.90
2023-04-02T06:24:24.144Z,47.10
2023-04-02T06:27:12.200Z,47.30
2023-04-02T06:30:04.147Z,47.70
2023-04-02T06:32:44.262Z,47.30
2023-04-02T06:35:32.126Z,46.90
2023-04-02T06:38:21.200Z,46.40
2023-04-02T06:41:38.117Z,46.20
2023-04-02T06:44:49.161Z,46.00
2023-04-02T06:47:58.181Z,46.40
2023-04-02T06:51:02.154Z,46.10
2023-04-02T06:53:57.172Z,46.10
2023-04-02T06:56:53.186Z,46.10
2023-04-02T06:59:44.161Z,46.10
2023-04-02T07:02:43.266Z,46.00
2023-04-02T07:05:30.138Z,45.80
2023-04-02T07:08:17.134Z,45.70
2023-04-02T07:10:58.404Z,45.80
2023-04-02T07:13:45.131Z,45.60
2023-04-02T07:16:27.878Z,45.40
2023-04-02T07:19:14.129Z,45.40
2023-04-02T07:22:03.219Z,45.50
2023-04-02T07:24:47.152Z,45.50
2023-04-02T07:27:27.977Z,45.40
2023-04-02T07:30:15.146Z,45.00
2023-04-02T07:32:55.729Z,45.00
2023-04-02T07:35:42.150Z,45.10
2023-04-02T07:38:22.666Z,45.20
2023-04-02T07:41:09.154Z,45.20
2023-04-02T07:43:49.968Z,45.40
2023-04-02T07:46:36.178Z,44.90
2023-04-02T07:49:16.722Z,45.20
2023-04-02T07:52:05.146Z,45.20
2023-04-02T07:54:52.144Z,45.10
2023-04-02T07:57:39.146Z,45.10
2023-04-02T08:00:20.715Z,45.00
2023-04-02T08:03:07.258Z,45.10
2023-04-02T08:05:53.103Z,45.00
2023-04-02T08:08:40.150Z,44.80
2023-04-02T08:11:27.140Z,44.70
2023-04-02T08:14:14.170Z,44.70
2023-04-02T08:17:01.650Z,44.50
2023-04-02T08:19:51.988Z,44.50
2023-04-02T08:22:41.174Z,44.30
2023-04-02T08:25:22.203Z,44.30
2023-04-02T08:28:09.156Z,44.10
2023-04-02T08:30:56.198Z,44.10
2023-04-02T08:33:43.176Z,44.00
2023-04-02T08:36:32.144Z,43.60
2023-04-02T08:39:20.123Z,43.90
2023-04-02T08:42:31.134Z,44.00
2023-04-02T08:45:24.880Z,43.90
2023-04-02T08:48:06.181Z,43.60
2023-04-02T08:50:46.280Z,43.60
2023-04-02T08:53:39.161Z,43.50
2023-04-02T08:56:40.141Z,43.20
2023-04-02T08:59:54.147Z,43.10
2023-04-02T09:02:52.230Z,43.10
2023-04-02T09:05:46.165Z,43.20
2023-04-02T09:08:36.155Z,43.40
2023-04-02T09:11:31.207Z,43.40
2023-04-02T09:14:22.146Z,43.40
2023-04-02T09:17:11.131Z,43.30
2023-04-02T09:20:12.154Z,43.20
2023-04-02T09:22:54.219Z,43.00
2023-04-02T09:25:43.409Z,42.80
2023-04-02T09:28:27.093Z,42.50
2023-04-02T09:31:25.179Z,42.00
2023-04-02T09:34:43.200Z,41.20
2023-04-02T09:37:26.140Z,39.90
2023-04-02T09:40:27.789Z,38.30
2023-04-02T09:43:35.145Z,37.30
2023-04-02T09:46:23.890Z,36.40
2023-04-02T09:49:12.145Z,35.60
2023-04-02T09:52:25.416Z,34.90
2023-04-02T09:55:29.163Z,33.90
2023-04-02T09:58:16.050Z,33.90
2023-04-02T10:01:06.167Z,32.00
2023-04-02T10:03:46.715Z,31.00
2023-04-02T10:06:34.149Z,30.60
2023-04-02T10:09:43.145Z,30.30
2023-04-02T10:12:30.277Z,29.80
2023-04-02T10:15:11.152Z,29.50
2023-04-02T10:18:12.780Z,29.10
2023-04-02T10:21:00.162Z,28.90
2023-04-02T10:23:40.997Z,29.30
2023-04-02T10:26:37.164Z,28.20
2023-04-02T10:29:21.566Z,27.80
2023-04-02T10:32:24.258Z,27.70
2023-04-02T10:35:21.503Z,27.20
2023-04-02T10:38:25.166Z,26.90
2023-04-02T10:41:27.556Z,26.70
2023-04-02T10:44:30.175Z,26.70
2023-04-02T10:47:55.222Z,26.40
2023-04-02T10:51:07.229Z,26.20
2023-04-02T10:54:09.155Z,26.10
2023-04-02T10:56:51.367Z,25.80
2023-04-02T10:59:44.173Z,25.60
2023-04-02T11:02:52.201Z,25.40
2023-04-02T11:05:47.179Z,25.30
2023-04-02T11:08:35.313Z,24.90
2023-04-02T11:11:30.166Z,24.80
2023-04-02T11:14:27.320Z,24.70
2023-04-02T11:17:21.205Z,24.60
2023-04-02T11:20:01.256Z,24.80
2023-04-02T11:22:48.149Z,25.30
2023-04-02T11:25:29.220Z,25.60
2023-04-02T11:28:35.171Z,26.00
2023-04-02T11:31:25.288Z,26.20
2023-04-02T11:34:12.153Z,26.60
2023-04-02T11:37:05.184Z,26.80
2023-04-02T11:40:05.932Z,26.50
2023-04-02T11:42:49.181Z,26.60
2023-04-02T11:48:42.157Z,26.10
2023-04-02T11:51:25.435Z,26.00
2023-04-02T11:54:12.165Z,26.30
2023-04-02T11:57:15.463Z,25.90
2023-04-02T12:00:26.153Z,25.60
2023-04-02T12:03:48.174Z,25.60
2023-04-02T12:06:31.259Z,25.60
2023-04-02T12:09:34.162Z,25.60
2023-04-02T12:12:41.172Z,25.60
2023-04-02T12:15:59.170Z,25.40
2023-04-02T12:18:59.277Z,25.30
2023-04-02T12:21:46.188Z,25.30
2023-04-02T12:24:35.270Z,25.30
2023-04-02T12:27:23.168Z,25.20
2023-04-02T12:30:16.568Z,25.20
2023-04-02T12:33:04.227Z,25.20
2023-04-02T12:35:46.489Z,24.90
2023-04-02T12:38:43.170Z,24.80
2023-04-02T12:41:36.764Z,24.90
2023-04-02T12:44:34.169Z,25.00
2023-04-02T12:47:21.213Z,25.00
2023-04-02T12:50:03.190Z,25.10
2023-04-02T12:52:50.338Z,25.00
2023-04-02T12:55:40.180Z,25.10
2023-04-02T12:58:29.518Z,25.00
2023-04-02T13:01:34.232Z,25.00
2023-04-02T13:04:22.072Z,25.00
2023-04-02T13:07:03.165Z,25.30
2023-04-02T13:09:48.001Z,25.20
2023-04-02T13:12:53.158Z,25.10
2023-04-02T13:15:36.618Z,25.20
2023-04-02T13:18:26.169Z,25.40
2023-04-02T13:21:21.758Z,25.50
2023-04-02T13:24:08.196Z,25.50
2023-04-02T13:26:57.207Z,25.60
2023-04-02T13:29:42.258Z,25.70
2023-04-02T13:32:29.208Z,25.90
2023-04-02T13:35:09.284Z,25.70
2023-04-02T13:37:56.393Z,25.30
2023-04-02T13:40:37.295Z,25.50
2023-04-02T13:43:26.181Z,25.80
2023-04-02T13:46:07.755Z,25.90
2023-04-02T13:48:55.194Z,26.00
2023-04-02T13:51:48.312Z,25.90
2023-04-02T13:54:52.207Z,25.80
2023-04-02T13:57:34.389Z,25.80
2023-04-02T14:00:21.209Z,25.90
2023-04-02T14:03:08.381Z,25.80
2023-04-02T14:06:10.217Z,25.80
2023-04-02T14:09:10.310Z,26.10
2023-04-02T14:12:17.220Z,26.40
2023-04-02T14:15:11.027Z,26.10
2023-04-02T14:18:22.181Z,26.10
2023-04-02T14:21:53.195Z,26.20
2023-04-02T14:25:07.996Z,26.20
2023-04-02T14:28:28.194Z,26.50
2023-04-02T14:31:42.272Z,26.80
2023-04-02T14:34:53.209Z,27.90
2023-04-02T14:37:52.214Z,27.40
2023-04-02T14:40:50.145Z,27.30
2023-04-02T14:44:05.247Z,27.30
2023-04-02T14:46:47.201Z,27.20
2023-04-02T14:49:46.232Z,27.40
2023-04-02T14:52:29.326Z,27.60
2023-04-02T14:55:42.194Z,27.60
2023-04-02T14:58:37.212Z,27.60
2023-04-02T15:01:33.273Z,27.60
2023-04-02T15:04:33.214Z,27.80
2023-04-02T15:07:26.005Z,28.00
2023-04-02T15:10:30.194Z,27.90
2023-04-02T15:13:24.256Z,28.10
2023-04-02T15:16:23.291Z,28.20
2023-04-02T15:19:17.190Z,28.30
2023-04-02T15:22:12.267Z,28.50
2023-04-02T15:25:05.214Z,28.70
2023-04-02T15:28:17.544Z,28.80
2023-04-02T15:31:07.272Z,28.90
2023-04-02T15:33:55.334Z,28.90
2023-04-02T15:36:59.218Z,28.90
2023-04-02T15:40:04.344Z,29.00
2023-04-02T15:43:11.249Z,29.20
2023-04-02T15:45:58.355Z,29.20
2023-04-02T15:48:51.194Z,29.40
2023-04-02T15:51:39.268Z,29.50
2023-04-02T15:54:44.201Z,29.60
2023-04-02T15:57:42.281Z,29.50
2023-04-02T16:00:37.561Z,29.70
2023-04-02T16:03:23.850Z,30.00
2023-04-02T16:06:33.218Z,30.10
2023-04-02T16:09:39.383Z,30.10
2023-04-02T16:12:27.229Z,30.10
2023-04-02T16:15:23.639Z,30.20
2023-04-02T16:18:18.262Z,30.20
2023-04-02T16:21:00.789Z,30.20
2023-04-02T16:23:48.210Z,30.50
2023-04-02T16:27:23.219Z,30.70
2023-04-02T16:30:23.222Z,31.30
2023-04-02T16:33:26.211Z,31.60
2023-04-02T16:36:13.248Z,31.70
2023-04-02T16:39:05.282Z,31.70
2023-04-02T16:42:13.216Z,31.70
2023-04-02T16:45:14.485Z,31.90
2023-04-02T16:48:32.226Z,32.00
2023-04-02T16:51:26.357Z,31.90
2023-04-02T16:54:28.197Z,31.80
2023-04-02T16:57:26.288Z,31.90
2023-04-02T17:00:25.202Z,32.00
2023-04-02T17:03:15.298Z,32.10
2023-04-02T17:06:11.207Z,32.30
2023-04-02T17:09:09.230Z,32.40
2023-04-02T17:12:03.268Z,32.50
2023-04-02T17:14:57.232Z,32.50
2023-04-02T17:17:37.750Z,32.50
2023-04-02T17:20:37.392Z,32.50
2023-04-02T17:23:19.716Z,32.50
2023-04-02T17:26:23.209Z,32.50
2023-04-02T17:29:09.353Z,33.50
2023-04-02T17:32:01.404Z,32.70
2023-04-02T17:34:41.761Z,32.90
2023-04-02T17:37:47.214Z,33.00
2023-04-02T17:40:53.236Z,32.90
2023-04-02T17:43:51.221Z,33.00
2023-04-02T17:47:06.216Z,33.10
2023-04-02T17:50:04.228Z,33.30
2023-04-02T17:52:53.348Z,33.30
2023-04-02T17:55:59.240Z,33.40
2023-04-02T17:58:58.206Z,33.50
2023-04-02T18:01:51.440Z,33.60
2023-04-02T18:04:57.206Z,33.70
2023-04-02T18:07:59.307Z,33.80
2023-04-02T18:11:22.225Z,34.00
2023-04-02T18:14:37.779Z,34.10
2023-04-02T18:17:59.256Z,34.10
2023-04-02T18:20:53.242Z,34.30
2023-04-02T18:23:50.228Z,34.40
2023-04-02T18:27:03.925Z,34.40
2023-04-02T18:29:59.210Z,34.60
2023-04-02T18:32:58.299Z,34.70
2023-04-02T18:35:47.229Z,34.90
2023-04-02T18:38:47.214Z,34.90
2023-04-02T18:41:46.234Z,35.10
2023-04-02T18:44:29.722Z,36.10
2023-04-02T18:47:36.282Z,35.20
2023-04-02T18:50:35.482Z,35.40
2023-04-02T18:53:35.216Z,35.60
2023-04-02T18:56:19.846Z,35.60
2023-04-02T18:59:34.363Z,35.70
2023-04-02T19:02:47.282Z,35.70
2023-04-02T19:05:35.918Z,35.70
2023-04-02T19:08:36.213Z,35.70
2023-04-02T19:11:29.729Z,35.60
2023-04-02T19:14:19.224Z,35.90
2023-04-02T19:17:23.288Z,36.00
2023-04-02T19:20:26.230Z,36.20
2023-04-02T19:23:20.223Z,36.20
2023-04-02T19:26:14.225Z,36.10
2023-04-02T19:29:25.217Z,36.20
2023-04-02T19:32:22.278Z,36.30
2023-04-02T19:35:22.223Z,36.30
2023-04-02T19:38:37.238Z,36.40
2023-04-02T19:41:39.214Z,36.40
2023-04-02T19:44:27.243Z,36.50
2023-04-02T19:47:16.212Z,36.40
2023-04-02T19:50:04.205Z,36.60
2023-04-02T19:52:51.321Z,36.80
2023-04-02T19:55:32.224Z,36.80
2023-04-02T19:58:31.227Z,36.80
2023-04-02T20:01:18.269Z,36.70
2023-04-02T20:03:58.767Z,36.80
2023-04-02T20:06:47.221Z,36.80
2023-04-02T20:09:41.221Z,36.80
2023-04-02T20:12:35.226Z,36.70
2023-04-02T20:15:16.863Z,36.90
2023-04-02T20:18:03.267Z,36.90
2023-04-02T20:20:47.838Z,37.00
2023-04-02T20:23:34.236Z,37.00
2023-04-02T20:26:22.261Z,37.10
2023-04-02T20:29:02.236Z,37.50
2023-04-02T20:31:49.287Z,37.20
2023-04-02T20:34:29.459Z,37.30
2023-04-02T20:37:16.237Z,37.40
2023-04-02T20:39:57.834Z,37.40
2023-04-02T20:42:44.242Z,37.40
2023-04-02T20:45:24.525Z,37.40
2023-04-02T20:48:11.220Z,37.30
2023-04-02T20:50:51.521Z,37.40
2023-04-02T20:53:41.229Z,37.40
2023-04-02T20:56:23.500Z,37.40
2023-04-02T20:59:10.226Z,38.40
2023-04-02T21:01:50.413Z,37.40
2023-04-02T21:04:37.240Z,37.20
2023-04-02T21:07:18.455Z,37.20
2023-04-02T21:10:05.243Z,37.20
2023-04-02T21:12:52.227Z,37.20
2023-04-02T21:15:32.994Z,37.20
2023-04-02T21:18:19.238Z,37.10
2023-04-02T21:21:05.384Z,37.30
2023-04-02T21:23:52.241Z,37.10
2023-04-02T21:26:42.343Z,37.10
2023-04-02T21:29:22.262Z,37.10
2023-04-02T21:32:20.780Z,37.20
2023-04-02T21:35:02.237Z,37.20
2023-04-02T21:37:43.519Z,37.10
2023-04-02T21:40:31.215Z,37.20
2023-04-02T21:43:11.726Z,38.20
2023-04-02T21:45:58.226Z,37.20
2023-04-02T21:48:40.582Z,37.20
2023-04-02T21:51:31.228Z,37.40
2023-04-02T21:54:18.305Z,37.40
2023-04-02T21:56:59.225Z,37.60
2023-04-02T21:59:46.381Z,37.50
2023-04-02T22:02:26.288Z,37.40
2023-04-02T22:05:07.295Z,37.40
2023-04-02T22:07:54.227Z,37.50
2023-04-02T22:10:49.230Z,37.60
2023-04-02T22:13:36.230Z,37.70
2023-04-02T22:16:22.359Z,38.70
2023-04-02T22:19:05.218Z,37.80
2023-04-02T22:21:46.270Z,37.90
2023-04-02T22:24:33.221Z,37.90
2023-04-02T22:27:20.332Z,38.00
2023-04-02T22:30:01.246Z,37.70
2023-04-02T22:32:48.244Z,37.90
2023-04-02T22:35:28.664Z,38.10
2023-04-02T22:38:16.220Z,38.10
2023-04-02T22:40:56.391Z,38.10
2023-04-02T22:43:44.219Z,38.10
2023-04-02T22:46:26.625Z,38.20
2023-04-02T22:49:13.227Z,38.10
2023-04-02T22:51:53.392Z,38.20
2023-04-02T22:54:40.253Z,38.20
2023-04-02T22:57:20.297Z,38.20
2023-04-02T23:00:07.243Z,38.40
2023-04-02T23:02:54.380Z,38.50
2023-04-02T23:05:34.808Z,38.40
2023-04-02T23:08:21.218Z,38.40
2023-04-02T23:11:21.253Z,38.40
2023-04-02T23:14:08.238Z,38.50
2023-04-02T23:16:48.306Z,38.50
2023-04-02T23:19:35.232Z,38.50
2023-04-02T23:22:15.854Z,38.50
2023-04-02T23:25:02.218Z,38.60
2023-04-02T23:27:42.288Z,38.70
2023-04-02T23:30:29.245Z,38.80
2023-04-02T23:33:09.384Z,38.70
2023-04-02T23:35:56.261Z,38.80
2023-04-02T23:38:36.322Z,38.80
2023-04-02T23:41:24.315Z,38.80
2023-04-02T23:44:05.669Z,38.80
2023-04-02T23:46:52.263Z,38.80
2023-04-02T23:49:32.309Z,38.80
2023-04-02T23:52:19.242Z,38.90
2023-04-02T23:54:59.274Z,38.90
2023-04-02T23:57:47.218Z,38.80
